Portada
METAR-TAF:

METAR-TAF

Aeroports :

Deauville, França

latitud: 49-21-55N, longitud: 000-09-16E, altitud: 146 m

Observació

L'informe es va fer fa 21 minuts, a les 22:30 UTC
Vent 6 kt del Sud-Est, variant entre Est/Nord-Est i Sud-Oest
Temperatura 30°C
Humitat 35%
Pressió 1012 hPa
Visibilitat 10 km o més

METAR: LFRG 232230Z AUTO 14006KT 070V220 9999 ///CB 30/13 Q1012

Hora: 00:51 (22:51 UTC)

Pronòstic

L'informe es va fer fa 8 hores i 51 minuts, a les 14:00 UTC
Pronòstic vàlid del 23 a les 15 UTC al 23 a les 24 UTC
Vent 8 kt del Est/Sud-Est
Visibilitat 10 km o més
sense núvols per sota de 1500 mi sense presència de cumulonimbus.
Probabilitat 30% :
Temporalment
l' 23 a les 17 UTC al 23 a les 21 UTC
Vent 15 kt amb direcció variable amb ràfegues de 35 kt
Visibilitat: 4000 m
Cel ennuvolat a una alçada de 8000 ft, Cumulonimbus.
tempesta, pluja, calamarsa

TAF: LFRG 231400Z 2315/2324 11008KT CAVOK PROB30 TEMPO 2317/2321 VRB15G35KT 4000 TSRAGR BKN080CB

Observacions i pronòstics meteorològics de més de 4000 aeroports (METAR i TAF).

Les estacions disponibles són els punts grocs i vermells al mapa.

Posi el ratolí al punt desitjat per veure el nom de l'estació.

Feu clic per veure les observacions i els pronòstics meteorològics.

Per canviar el mapa: feu clic els botons verds amb una creu de color negre per apropar; al botó verd amb un guió per allunyar la imatge; o en les fletxes verdes per a mapes adjacents.


METAR-TAF: